createdAt,value
2017-12-05T00:02:25.115Z,79.60
2017-12-05T00:04:53.467Z,79.75
2017-12-05T00:07:21.784Z,80.00
2017-12-05T00:09:50.111Z,79.89
2017-12-05T00:12:19.229Z,79.98
2017-12-05T00:14:47.540Z,79.94
2017-12-05T00:17:16.005Z,79.96
2017-12-05T00:19:44.308Z,80.10
2017-12-05T00:22:12.611Z,80.07
2017-12-05T00:24:40.981Z,79.98
2017-12-05T00:27:09.306Z,79.93
2017-12-05T00:29:37.641Z,80.19
2017-12-05T00:32:06.746Z,80.46
2017-12-05T00:34:35.843Z,80.17
2017-12-05T00:37:05.661Z,80.11
2017-12-05T00:39:35.481Z,80.03
2017-12-05T00:42:03.790Z,79.92
2017-12-05T00:44:32.853Z,79.91
2017-12-05T00:47:02.680Z,79.91
2017-12-05T00:49:31.103Z,79.83
2017-12-05T00:51:59.436Z,80.02
2017-12-05T00:54:28.525Z,80.09
2017-12-05T00:56:56.868Z,80.08
2017-12-05T00:59:25.189Z,80.21
2017-12-05T01:01:53.523Z,80.09
2017-12-05T01:04:21.836Z,79.97
2017-12-05T01:06:50.158Z,80.00
2017-12-05T01:09:19.246Z,79.93
2017-12-05T01:11:47.570Z,79.65
2017-12-05T01:14:15.943Z,79.62
2017-12-05T01:16:44.274Z,79.60
2017-12-05T01:19:12.591Z,79.72
2017-12-05T01:21:41.690Z,79.68
2017-12-05T01:24:10.800Z,79.85
2017-12-05T01:26:39.130Z,79.81
2017-12-05T01:29:07.458Z,79.64
2017-12-05T01:31:35.796Z,79.66
2017-12-05T01:34:04.188Z,79.30
2017-12-05T01:36:33.317Z,79.18
2017-12-05T01:39:01.768Z,79.08
2017-12-05T01:41:30.098Z,79.01
2017-12-05T01:43:58.535Z,79.06
2017-12-05T01:46:27.700Z,78.99
2017-12-05T01:48:56.005Z,78.99
2017-12-05T01:51:24.354Z,78.99
2017-12-05T01:53:52.680Z,78.94
2017-12-05T01:56:21.022Z,79.00
2017-12-05T01:58:49.443Z,78.89
2017-12-05T02:01:19.466Z,78.92
2017-12-05T02:03:48.586Z,78.66
2017-12-05T02:06:17.674Z,78.98
2017-12-05T02:08:46.672Z,78.78
2017-12-05T02:11:16.338Z,78.74
2017-12-05T02:13:44.681Z,78.55
2017-12-05T02:16:13.774Z,78.55
2017-12-05T02:18:42.882Z,78.41
2017-12-05T02:21:11.218Z,78.07
2017-12-05T02:23:39.537Z,77.92
2017-12-05T02:26:08.634Z,77.89
2017-12-05T02:28:37.765Z,77.70
2017-12-05T02:31:06.069Z,77.44
2017-12-05T02:33:34.387Z,77.39
2017-12-05T02:36:03.585Z,76.99
2017-12-05T02:38:31.925Z,77.13
2017-12-05T02:41:10.077Z,76.75
2017-12-05T02:43:39.183Z,76.35
2017-12-05T02:46:08.306Z,76.74
2017-12-05T02:48:36.611Z,77.14
2017-12-05T02:51:04.935Z,77.12
2017-12-05T02:53:34.035Z,76.80
2017-12-05T02:56:03.143Z,76.48
2017-12-05T02:58:32.220Z,76.50
2017-12-05T03:01:00.516Z,76.02
2017-12-05T03:03:29.679Z,75.61
2017-12-05T03:05:58.004Z,75.65
2017-12-05T03:08:27.092Z,75.78
2017-12-05T03:10:56.266Z,75.38
2017-12-05T03:13:24.587Z,75.23
2017-12-05T03:15:53.684Z,75.01
2017-12-05T03:18:22.012Z,74.81
2017-12-05T03:20:50.534Z,74.88
2017-12-05T03:23:18.845Z,74.71
2017-12-05T03:25:47.158Z,74.70
2017-12-05T03:28:15.483Z,74.50
2017-12-05T03:30:44.560Z,74.05
2017-12-05T03:33:12.886Z,73.79
2017-12-05T03:35:41.201Z,73.83
2017-12-05T03:38:10.288Z,73.67
2017-12-05T03:40:38.636Z,73.49
2017-12-05T03:43:06.961Z,73.41
2017-12-05T03:45:35.334Z,73.26
2017-12-05T03:48:04.238Z,73.48
2017-12-05T03:50:32.555Z,73.52
2017-12-05T03:53:00.862Z,74.05
2017-12-05T03:55:29.944Z,74.05
2017-12-05T03:57:59.026Z,74.13
2017-12-05T04:00:27.354Z,74.04
2017-12-05T04:02:55.692Z,74.39
2017-12-05T04:05:24.005Z,74.37
2017-12-05T04:07:52.326Z,74.19
2017-12-05T04:10:20.654Z,74.35
2017-12-05T04:12:49.740Z,74.08
2017-12-05T04:15:18.070Z,73.86
2017-12-05T04:17:46.400Z,74.07
2017-12-05T04:20:14.755Z,73.75
2017-12-05T04:22:43.194Z,73.87
2017-12-05T04:25:11.518Z,74.00
2017-12-05T04:27:39.849Z,74.18
2017-12-05T04:30:08.182Z,73.89
2017-12-05T04:32:36.655Z,74.02
2017-12-05T04:35:04.980Z,73.75
2017-12-05T04:37:35.784Z,73.61
2017-12-05T04:40:04.149Z,73.73
2017-12-05T04:42:32.488Z,73.63
2017-12-05T04:45:01.579Z,73.38
2017-12-05T04:47:30.672Z,73.46
2017-12-05T04:49:59.024Z,73.33
2017-12-05T04:52:27.520Z,73.33
2017-12-05T04:54:55.835Z,73.53
2017-12-05T04:57:24.922Z,73.04
2017-12-05T04:59:54.024Z,73.05
2017-12-05T05:02:23.119Z,73.27
2017-12-05T05:04:52.190Z,73.08
2017-12-05T05:07:20.512Z,72.51
2017-12-05T05:09:49.596Z,72.35
2017-12-05T05:12:17.942Z,72.91
2017-12-05T05:14:46.262Z,72.34
2017-12-05T05:17:15.371Z,72.23
2017-12-05T05:19:44.462Z,71.82
2017-12-05T05:22:13.608Z,72.14
2017-12-05T05:24:41.928Z,72.00
2017-12-05T05:27:10.358Z,71.49
2017-12-05T05:29:38.657Z,71.06
2017-12-05T05:32:07.008Z,71.21
2017-12-05T05:34:35.360Z,70.97
2017-12-05T05:37:03.688Z,70.89
2017-12-05T05:39:32.805Z,70.50
2017-12-05T05:42:01.136Z,70.40
2017-12-05T05:44:30.942Z,70.04
2017-12-05T05:47:00.024Z,69.51
2017-12-05T05:49:29.144Z,69.79
2017-12-05T05:51:58.258Z,69.73
2017-12-05T05:54:26.612Z,69.90
2017-12-05T05:56:54.920Z,69.52
2017-12-05T05:59:23.276Z,69.67
2017-12-05T06:01:51.756Z,68.88
2017-12-05T06:04:20.114Z,69.45
2017-12-05T06:06:48.434Z,69.82
2017-12-05T06:09:17.537Z,70.26
2017-12-05T06:11:46.649Z,70.23
2017-12-05T06:14:14.989Z,70.06
2017-12-05T06:16:44.784Z,69.59
2017-12-05T06:19:13.244Z,70.01
2017-12-05T06:21:41.650Z,70.20
2017-12-05T06:24:09.976Z,70.64
2017-12-05T06:26:39.060Z,70.37
2017-12-05T06:29:07.375Z,69.98
2017-12-05T06:31:35.705Z,69.30
2017-12-05T06:34:04.046Z,69.16
2017-12-05T06:36:32.346Z,69.57
2017-12-05T06:39:00.684Z,69.30
2017-12-05T06:41:29.807Z,69.27
2017-12-05T06:43:58.138Z,69.39
2017-12-05T06:46:27.222Z,69.36
2017-12-05T06:48:55.571Z,68.98
2017-12-05T06:51:23.952Z,69.66
2017-12-05T06:53:52.283Z,69.58
2017-12-05T06:56:20.610Z,69.58
2017-12-05T06:58:48.943Z,70.02
2017-12-05T07:01:18.802Z,70.16
2017-12-05T07:03:47.109Z,69.45
2017-12-05T07:06:15.446Z,69.31
2017-12-05T07:08:44.539Z,68.76
2017-12-05T07:11:13.627Z,68.42
2017-12-05T07:13:41.958Z,68.29
2017-12-05T07:16:10.334Z,68.54
2017-12-05T07:18:38.684Z,68.66
2017-12-05T07:21:08.513Z,69.36
2017-12-05T07:23:36.862Z,69.79
2017-12-05T07:26:05.190Z,70.32
2017-12-05T07:28:33.537Z,69.74
2017-12-05T07:31:01.862Z,69.88
2017-12-05T07:33:30.230Z,69.59
2017-12-05T07:35:58.561Z,69.16
2017-12-05T07:38:26.908Z,69.36
2017-12-05T07:40:55.244Z,69.65
2017-12-05T07:43:23.547Z,69.57
2017-12-05T07:45:51.903Z,68.87
2017-12-05T07:48:20.219Z,68.76
2017-12-05T07:50:48.540Z,69.32
2017-12-05T07:53:16.869Z,69.90
2017-12-05T07:55:46.023Z,70.15
2017-12-05T07:58:14.290Z,69.62
2017-12-05T08:00:42.624Z,69.88
2017-12-05T08:03:12.080Z,69.50
2017-12-05T08:05:40.458Z,68.69
2017-12-05T08:08:09.560Z,69.19
2017-12-05T08:10:38.027Z,69.03
2017-12-05T08:13:06.356Z,68.76
2017-12-05T08:15:34.671Z,68.54
2017-12-05T08:18:02.991Z,69.28
2017-12-05T08:20:31.307Z,68.97
2017-12-05T08:23:00.375Z,68.49
2017-12-05T08:25:28.692Z,68.45
2017-12-05T08:27:57.795Z,69.86
2017-12-05T08:30:26.893Z,68.68
2017-12-05T08:32:55.217Z,68.24
2017-12-05T08:35:23.565Z,68.98
2017-12-05T08:37:51.938Z,68.47
2017-12-05T08:40:20.200Z,67.52
2017-12-05T08:42:48.767Z,68.05
2017-12-05T08:45:17.083Z,68.04
2017-12-05T08:47:45.568Z,67.53
2017-12-05T08:50:14.667Z,67.15
2017-12-05T08:52:43.059Z,66.07
2017-12-05T08:55:11.592Z,66.77
2017-12-05T08:57:39.904Z,67.26
2017-12-05T09:00:08.245Z,67.23
2017-12-05T09:02:36.577Z,67.10
2017-12-05T09:05:04.893Z,67.13
2017-12-05T09:07:33.981Z,67.22
2017-12-05T09:10:03.103Z,66.69
2017-12-05T09:12:31.442Z,66.19
2017-12-05T09:15:00.581Z,65.78
2017-12-05T09:17:29.655Z,65.79
2017-12-05T09:19:57.963Z,65.43
2017-12-05T09:22:26.281Z,65.87
2017-12-05T09:24:54.579Z,65.80
2017-12-05T09:27:22.998Z,65.93
2017-12-05T09:29:52.061Z,65.85
2017-12-05T09:32:20.357Z,65.58
2017-12-05T09:34:48.669Z,65.65
2017-12-05T09:37:17.753Z,66.99
2017-12-05T09:39:46.809Z,67.46
2017-12-05T09:42:15.127Z,66.24
2017-12-05T09:44:43.437Z,66.05
2017-12-05T09:47:11.753Z,65.94
2017-12-05T09:49:40.054Z,65.88
2017-12-05T09:52:08.361Z,66.14
2017-12-05T09:57:05.853Z,67.34
2017-12-05T09:59:34.957Z,67.41
2017-12-05T10:02:03.379Z,67.23
2017-12-05T10:04:31.703Z,66.63
2017-12-05T10:07:00.037Z,66.33
2017-12-05T10:09:28.407Z,66.25
2017-12-05T10:11:56.747Z,65.77
2017-12-05T10:14:25.079Z,66.66
2017-12-05T10:16:53.425Z,66.03
2017-12-05T10:19:22.513Z,65.53
2017-12-05T10:21:51.683Z,66.00
2017-12-05T10:24:20.009Z,66.29
2017-12-05T10:26:49.093Z,65.93
2017-12-05T10:29:17.429Z,66.51
2017-12-05T10:31:45.756Z,66.28
2017-12-05T10:34:14.937Z,65.91
2017-12-05T10:36:43.293Z,66.07
2017-12-05T10:39:11.595Z,65.67
2017-12-05T10:41:39.943Z,65.48
2017-12-05T10:44:09.101Z,65.85
2017-12-05T10:46:37.413Z,65.88
2017-12-05T10:49:05.715Z,65.97
2017-12-05T10:51:34.016Z,66.47
2017-12-05T10:54:02.315Z,66.66
2017-12-05T10:56:30.667Z,65.80
2017-12-05T10:58:58.963Z,64.73
2017-12-05T11:01:27.273Z,64.83
2017-12-05T11:03:55.599Z,64.39
2017-12-05T11:06:23.938Z,64.43
2017-12-05T11:08:52.231Z,63.93
2017-12-05T11:11:21.331Z,64.36
2017-12-05T11:13:50.407Z,65.07
2017-12-05T11:16:18.712Z,65.19
2017-12-05T11:18:47.797Z,65.26
2017-12-05T11:21:16.118Z,64.34
2017-12-05T11:23:44.437Z,64.89
2017-12-05T11:26:12.758Z,64.87
2017-12-05T11:28:41.848Z,65.55
2017-12-05T11:31:10.939Z,65.90
2017-12-05T11:33:39.269Z,66.92
2017-12-05T11:36:07.579Z,67.91
2017-12-05T11:38:35.885Z,67.82
2017-12-05T11:41:05.005Z,68.49
2017-12-05T11:43:34.079Z,68.36
2017-12-05T11:46:02.416Z,68.68
2017-12-05T11:48:30.720Z,69.08
2017-12-05T11:50:59.054Z,69.85
2017-12-05T11:53:28.143Z,70.69
2017-12-05T11:55:57.241Z,70.92
2017-12-05T11:58:26.320Z,71.00
2017-12-05T12:00:54.623Z,71.66
2017-12-05T12:03:23.723Z,71.86
2017-12-05T12:05:52.855Z,71.93
2017-12-05T12:08:21.172Z,71.99
2017-12-05T12:10:49.479Z,72.31
2017-12-05T12:13:17.796Z,72.02
2017-12-05T12:15:46.108Z,72.15
2017-12-05T12:18:14.415Z,72.32
2017-12-05T12:20:42.738Z,72.50
2017-12-05T12:23:11.050Z,72.45
2017-12-05T12:25:39.425Z,72.52
2017-12-05T12:28:07.738Z,72.52
2017-12-05T12:30:36.051Z,72.63
2017-12-05T12:33:04.375Z,72.75
2017-12-05T12:35:32.687Z,72.63
2017-12-05T12:38:01.013Z,72.66
2017-12-05T12:40:29.326Z,72.95
2017-12-05T12:42:57.647Z,73.00
2017-12-05T12:45:25.977Z,72.80
2017-12-05T12:47:54.296Z,72.57
2017-12-05T12:50:22.645Z,72.53
2017-12-05T12:52:50.998Z,72.25
2017-12-05T12:55:19.316Z,72.23
2017-12-05T12:57:48.350Z,72.20
2017-12-05T13:00:16.651Z,72.05
2017-12-05T13:02:44.957Z,72.04
2017-12-05T13:05:13.297Z,72.09
2017-12-05T13:07:41.620Z,72.40
2017-12-05T13:10:09.935Z,72.73
2017-12-05T13:12:38.256Z,72.27
2017-12-05T13:15:06.589Z,72.27
2017-12-05T13:17:35.688Z,72.31
2017-12-05T13:20:03.992Z,72.26
2017-12-05T13:22:32.311Z,72.62
2017-12-05T13:25:00.635Z,71.68
2017-12-05T13:27:28.957Z,71.03
2017-12-05T13:29:58.031Z,70.66
2017-12-05T13:32:26.403Z,69.13
2017-12-05T13:34:54.724Z,68.45
2017-12-05T13:37:23.128Z,68.03
2017-12-05T13:39:51.553Z,68.46
2017-12-05T13:42:19.816Z,68.28
2017-12-05T13:44:48.139Z,68.06
2017-12-05T13:47:17.234Z,68.46
2017-12-05T13:49:45.539Z,68.25
2017-12-05T13:52:13.854Z,67.78
2017-12-05T13:54:42.165Z,67.61
2017-12-05T13:57:10.482Z,67.38
2017-12-05T13:59:38.915Z,67.80
2017-12-05T14:02:07.257Z,67.77
2017-12-05T14:04:36.463Z,67.95
2017-12-05T14:07:04.777Z,68.21
2017-12-05T14:09:33.083Z,68.22
2017-12-05T14:12:01.386Z,68.18
2017-12-05T14:14:30.610Z,68.07
2017-12-05T14:16:58.988Z,67.74
2017-12-05T14:19:27.302Z,67.19
2017-12-05T14:21:55.685Z,66.86
2017-12-05T14:24:24.010Z,67.37
2017-12-05T14:26:53.133Z,67.38
2017-12-05T14:29:21.455Z,67.66
2017-12-05T14:31:49.800Z,67.85
2017-12-05T14:34:18.128Z,68.13
2017-12-05T14:36:46.426Z,68.20
2017-12-05T14:39:15.507Z,68.32
2017-12-05T14:41:44.606Z,68.48
2017-12-05T14:44:13.750Z,68.56
2017-12-05T14:46:42.108Z,68.87
2017-12-05T14:49:10.460Z,68.88
2017-12-05T14:51:38.774Z,69.42
2017-12-05T14:54:07.360Z,69.52
2017-12-05T14:56:36.443Z,69.26
2017-12-05T14:59:05.522Z,69.18
2017-12-05T15:01:33.854Z,69.05
2017-12-05T15:04:02.170Z,69.11
2017-12-05T15:06:30.486Z,68.92
2017-12-05T15:08:59.654Z,68.94
2017-12-05T15:11:28.766Z,68.83
2017-12-05T15:13:57.104Z,68.96
2017-12-05T15:16:25.480Z,69.30
2017-12-05T15:18:53.788Z,69.12
2017-12-05T15:21:22.102Z,69.34
2017-12-05T15:23:51.249Z,69.79
2017-12-05T15:26:20.298Z,69.51
2017-12-05T15:28:48.626Z,69.90
2017-12-05T15:31:16.922Z,70.12
2017-12-05T15:33:45.259Z,69.58
2017-12-05T15:36:14.356Z,69.50
2017-12-05T15:38:43.496Z,69.53
2017-12-05T15:41:11.834Z,69.52
2017-12-05T15:43:40.940Z,69.49
2017-12-05T15:46:09.266Z,69.82
2017-12-05T15:48:37.620Z,69.74
2017-12-05T15:51:05.925Z,69.36
2017-12-05T15:53:34.232Z,69.39
2017-12-05T15:56:02.552Z,69.62
2017-12-05T15:58:30.859Z,69.65
2017-12-05T16:00:59.234Z,69.54
2017-12-05T16:03:27.562Z,69.41
2017-12-05T16:05:55.870Z,69.55
2017-12-05T16:08:24.937Z,69.21
2017-12-05T16:10:53.500Z,68.57
2017-12-05T16:13:21.892Z,68.65
2017-12-05T16:15:50.202Z,68.46
2017-12-05T16:18:18.508Z,68.45
2017-12-05T16:20:46.807Z,68.44
2017-12-05T16:23:15.126Z,68.57
2017-12-05T16:25:43.449Z,68.53
2017-12-05T16:28:11.782Z,68.53
2017-12-05T16:30:40.101Z,68.41
2017-12-05T16:33:09.192Z,67.93
2017-12-05T16:35:38.266Z,67.74
2017-12-05T16:38:06.886Z,67.92
2017-12-05T16:40:35.969Z,68.22
2017-12-05T16:43:04.269Z,68.59
2017-12-05T16:45:33.354Z,69.30
2017-12-05T16:48:02.523Z,69.17
2017-12-05T16:50:30.853Z,68.61
2017-12-05T16:52:59.952Z,68.79
2017-12-05T16:55:28.360Z,68.57
2017-12-05T16:57:56.676Z,68.34
2017-12-05T17:00:25.197Z,68.28
2017-12-05T17:02:53.548Z,68.40
2017-12-05T17:05:23.416Z,68.40
2017-12-05T17:07:51.706Z,68.45
2017-12-05T17:10:20.058Z,68.38
2017-12-05T17:12:49.135Z,68.20
2017-12-05T17:15:18.216Z,68.17
2017-12-05T17:17:51.309Z,67.86
2017-12-05T17:20:19.629Z,67.89
2017-12-05T17:22:47.950Z,68.23
2017-12-05T17:25:16.383Z,68.38
2017-12-05T17:27:45.471Z,68.40
2017-12-05T17:30:13.799Z,68.71
2017-12-05T17:32:42.123Z,68.67
2017-12-05T17:35:10.441Z,68.27
2017-12-05T17:37:38.783Z,68.29
2017-12-05T17:40:07.107Z,68.45
2017-12-05T17:42:35.421Z,68.52
2017-12-05T17:45:03.751Z,68.48
2017-12-05T17:47:32.856Z,68.52
2017-12-05T17:50:01.934Z,68.46
2017-12-05T17:52:30.253Z,68.67
2017-12-05T17:54:58.570Z,68.81
2017-12-05T17:57:26.879Z,68.49
2017-12-05T17:59:55.963Z,68.45
2017-12-05T18:02:25.819Z,68.45
2017-12-05T18:04:54.129Z,68.53
2017-12-05T18:07:22.445Z,68.39
2017-12-05T18:09:51.587Z,68.46
2017-12-05T18:12:19.935Z,68.43
2017-12-05T18:14:48.229Z,68.44
2017-12-05T18:17:16.523Z,68.49
2017-12-05T18:19:44.857Z,68.53
2017-12-05T18:22:13.187Z,68.40
2017-12-05T18:24:41.486Z,68.83
2017-12-05T18:27:09.794Z,68.97
2017-12-05T18:29:38.123Z,69.04
2017-12-05T18:32:06.461Z,68.80
2017-12-05T18:34:34.809Z,68.46
2017-12-05T18:37:03.232Z,68.52
2017-12-05T18:39:31.550Z,68.76
2017-12-05T18:41:59.879Z,68.87
2017-12-05T18:44:28.184Z,69.08
2017-12-05T18:46:56.498Z,69.05
2017-12-05T18:49:24.827Z,68.92
2017-12-05T18:51:53.928Z,69.06
2017-12-05T18:54:23.898Z,69.21
2017-12-05T18:56:52.225Z,69.27
2017-12-05T18:59:20.768Z,69.34
2017-12-05T19:01:49.069Z,69.29
2017-12-05T19:04:17.370Z,69.64
2017-12-05T19:06:45.684Z,70.60
2017-12-05T19:09:14.771Z,71.25
2017-12-05T19:11:43.112Z,70.97
2017-12-05T19:14:11.415Z,70.32
2017-12-05T19:16:41.245Z,71.27
2017-12-05T19:19:09.569Z,71.59
2017-12-05T19:21:37.872Z,70.87
2017-12-05T19:24:06.179Z,70.65
2017-12-05T19:26:36.045Z,71.43
2017-12-05T19:29:04.360Z,71.92
2017-12-05T19:31:32.753Z,71.42
2017-12-05T19:34:01.096Z,71.43
2017-12-05T19:36:30.319Z,72.30
2017-12-05T19:38:58.637Z,72.38
2017-12-05T19:41:26.943Z,72.46
2017-12-05T19:43:55.262Z,71.07
2017-12-05T19:46:23.593Z,72.12
2017-12-05T19:48:52.673Z,72.46
2017-12-05T19:51:21.641Z,71.41
2017-12-05T19:53:50.161Z,71.13
2017-12-05T19:56:18.863Z,71.03
2017-12-05T19:58:47.215Z,71.74
2017-12-05T20:01:15.542Z,71.98
2017-12-05T20:03:43.858Z,71.19
2017-12-05T20:06:12.158Z,71.51
2017-12-05T20:08:40.486Z,70.98
2017-12-05T20:11:08.803Z,71.24
2017-12-05T20:13:37.101Z,69.76
2017-12-05T20:16:05.435Z,70.48
2017-12-05T20:18:33.735Z,69.87
2017-12-05T20:21:02.066Z,70.17
2017-12-05T20:23:31.183Z,70.02
2017-12-05T20:25:59.478Z,70.00
2017-12-05T20:28:27.812Z,70.37
2017-12-05T20:30:56.125Z,71.13
2017-12-05T20:33:24.419Z,70.32
2017-12-05T20:35:52.743Z,69.30
2017-12-05T20:38:21.101Z,69.95
2017-12-05T20:40:49.412Z,69.69
2017-12-05T20:43:17.730Z,69.94
2017-12-05T20:45:46.886Z,70.29
2017-12-05T20:48:15.179Z,69.18
2017-12-05T20:50:43.531Z,69.79
2017-12-05T20:53:11.832Z,70.31
2017-12-05T20:55:40.920Z,69.72
2017-12-05T20:58:09.232Z,69.76
2017-12-05T21:00:38.495Z,69.49
2017-12-05T21:03:06.812Z,69.89
2017-12-05T21:05:36.032Z,70.48
2017-12-05T21:08:04.355Z,70.09
2017-12-05T21:10:32.711Z,69.60
2017-12-05T21:13:01.016Z,69.82
2017-12-05T21:15:30.191Z,70.57
2017-12-05T21:17:58.500Z,69.91
2017-12-05T21:20:26.825Z,70.05
2017-12-05T21:22:55.903Z,69.64
2017-12-05T21:25:24.228Z,70.22
2017-12-05T21:27:52.541Z,70.72
2017-12-05T21:30:20.854Z,70.11
2017-12-05T21:32:49.170Z,70.30
2017-12-05T21:35:17.491Z,69.65
2017-12-05T21:37:46.586Z,69.78
2017-12-05T21:40:14.926Z,70.35
2017-12-05T21:42:43.264Z,69.82
2017-12-05T21:45:11.588Z,68.31
2017-12-05T21:47:39.979Z,68.64
2017-12-05T21:50:08.315Z,68.38
2017-12-05T21:52:36.736Z,68.35
2017-12-05T21:55:05.919Z,68.79
2017-12-05T21:57:40.109Z,68.54
2017-12-05T22:00:08.713Z,68.74
2017-12-05T22:02:37.786Z,68.80
2017-12-05T22:05:06.144Z,68.99
2017-12-05T22:07:34.559Z,69.51
2017-12-05T22:10:02.868Z,69.72
2017-12-05T22:12:31.955Z,69.49
2017-12-05T22:15:01.028Z,68.87
2017-12-05T22:17:30.841Z,69.68
2017-12-05T22:19:59.148Z,69.75
2017-12-05T22:22:27.556Z,69.76
2017-12-05T22:24:56.587Z,70.04
2017-12-05T22:27:24.934Z,70.09
2017-12-05T22:29:53.257Z,69.67
2017-12-05T22:32:21.602Z,70.09
2017-12-05T22:34:49.912Z,71.01
2017-12-05T22:37:18.231Z,70.34
2017-12-05T22:39:47.190Z,69.98
2017-12-05T22:42:15.510Z,69.60
2017-12-05T22:44:44.630Z,69.53
2017-12-05T22:47:12.916Z,69.50
2017-12-05T22:49:41.213Z,69.20
2017-12-05T22:52:09.526Z,69.21
2017-12-05T22:54:37.836Z,69.03
2017-12-05T22:57:06.935Z,69.61
2017-12-05T22:59:36.030Z,69.44
2017-12-05T23:02:05.108Z,69.06
2017-12-05T23:04:33.440Z,69.43
2017-12-05T23:07:01.744Z,69.45
2017-12-05T23:09:30.056Z,69.46
2017-12-05T23:11:58.426Z,69.07
2017-12-05T23:14:26.720Z,69.15
2017-12-05T23:16:55.050Z,69.03
2017-12-05T23:19:23.365Z,69.30
2017-12-05T23:21:52.462Z,69.07
2017-12-05T23:24:20.750Z,69.26
2017-12-05T23:26:49.821Z,69.51
2017-12-05T23:29:18.216Z,69.54
2017-12-05T23:31:46.653Z,69.66
2017-12-05T23:34:15.782Z,69.37
2017-12-05T23:36:44.084Z,68.85
2017-12-05T23:39:12.401Z,68.59
2017-12-05T23:41:41.726Z,69.54
2017-12-05T23:44:10.040Z,69.68
2017-12-05T23:46:38.438Z,69.87
2017-12-05T23:49:06.830Z,69.40
2017-12-05T23:51:35.136Z,69.14
2017-12-05T23:54:04.242Z,69.36
2017-12-05T23:56:33.323Z,69.02
2017-12-05T23:59:01.640Z,69.24
